sensor_id;sensor_type;location;lat;lon;timestamp;P1;durP1;ratioP1;P2;durP2;ratioP2
5279;SDS011;2663;53.588;10.010;2023-07-13T00:01:48;8.60;;;4.57;;
5279;SDS011;2663;53.588;10.010;2023-07-13T00:04:16;10.83;;;4.03;;
5279;SDS011;2663;53.588;10.010;2023-07-13T00:06:45;11.23;;;3.87;;
5279;SDS011;2663;53.588;10.010;2023-07-13T00:09:13;11.80;;;4.67;;
5279;SDS011;2663;53.588;10.010;2023-07-13T00:11:40;10.73;;;4.57;;
5279;SDS011;2663;53.588;10.010;2023-07-13T00:14:07;6.07;;;3.73;;
5279;SDS011;2663;53.588;10.010;2023-07-13T00:16:35;10.77;;;4.60;;
5279;SDS011;2663;53.588;10.010;2023-07-13T00:19:03;9.43;;;3.83;;
5279;SDS011;2663;53.588;10.010;2023-07-13T00:21:31;10.00;;;4.80;;
5279;SDS011;2663;53.588;10.010;2023-07-13T00:23:58;14.17;;;3.97;;
5279;SDS011;2663;53.588;10.010;2023-07-13T00:26:25;5.43;;;3.53;;
5279;SDS011;2663;53.588;10.010;2023-07-13T00:28:52;11.40;;;3.40;;
5279;SDS011;2663;53.588;10.010;2023-07-13T00:31:19;5.57;;;3.50;;
5279;SDS011;2663;53.588;10.010;2023-07-13T00:33:47;11.53;;;4.07;;
5279;SDS011;2663;53.588;10.010;2023-07-13T00:36:14;5.57;;;2.47;;
5279;SDS011;2663;53.588;10.010;2023-07-13T00:38:40;8.90;;;3.00;;
5279;SDS011;2663;53.588;10.010;2023-07-13T00:41:07;8.27;;;2.60;;
5279;SDS011;2663;53.588;10.010;2023-07-13T00:43:34;4.93;;;2.70;;
5279;SDS011;2663;53.588;10.010;2023-07-13T00:48:37;9.93;;;2.90;;
5279;SDS011;2663;53.588;10.010;2023-07-13T00:51:04;9.53;;;3.00;;
5279;SDS011;2663;53.588;10.010;2023-07-13T00:53:31;7.03;;;3.40;;
5279;SDS011;2663;53.588;10.010;2023-07-13T00:56:00;3.50;;;3.00;;
5279;SDS011;2663;53.588;10.010;2023-07-13T00:58:27;6.23;;;3.10;;
5279;SDS011;2663;53.588;10.010;2023-07-13T01:00:55;3.40;;;3.10;;
5279;SDS011;2663;53.588;10.010;2023-07-13T01:03:21;7.47;;;2.83;;
5279;SDS011;2663;53.588;10.010;2023-07-13T01:05:48;5.10;;;2.80;;
5279;SDS011;2663;53.588;10.010;2023-07-13T01:08:16;5.30;;;3.47;;
5279;SDS011;2663;53.588;10.010;2023-07-13T01:10:52;10.00;;;3.87;;
5279;SDS011;2663;53.588;10.010;2023-07-13T01:13:20;7.23;;;3.70;;
5279;SDS011;2663;53.588;10.010;2023-07-13T01:15:48;9.30;;;3.73;;
5279;SDS011;2663;53.588;10.010;2023-07-13T01:18:18;9.37;;;3.20;;
5279;SDS011;2663;53.588;10.010;2023-07-13T01:20:57;9.47;;;3.90;;
5279;SDS011;2663;53.588;10.010;2023-07-13T01:23:26;10.13;;;3.20;;
5279;SDS011;2663;53.588;10.010;2023-07-13T01:25:54;14.00;;;3.50;;
5279;SDS011;2663;53.588;10.010;2023-07-13T01:28:22;9.20;;;3.80;;
5279;SDS011;2663;53.588;10.010;2023-07-13T01:30:53;7.97;;;3.97;;
5279;SDS011;2663;53.588;10.010;2023-07-13T01:33:21;7.47;;;3.57;;
5279;SDS011;2663;53.588;10.010;2023-07-13T01:35:48;10.23;;;3.63;;
5279;SDS011;2663;53.588;10.010;2023-07-13T01:38:18;8.20;;;3.70;;
5279;SDS011;2663;53.588;10.010;2023-07-13T01:40:47;5.27;;;3.27;;
5279;SDS011;2663;53.588;10.010;2023-07-13T01:43:14;5.60;;;3.90;;
5279;SDS011;2663;53.588;10.010;2023-07-13T01:45:40;4.03;;;3.63;;
5279;SDS011;2663;53.588;10.010;2023-07-13T01:48:11;5.50;;;3.93;;
5279;SDS011;2663;53.588;10.010;2023-07-13T01:50:38;4.23;;;3.77;;
5279;SDS011;2663;53.588;10.010;2023-07-13T01:53:06;5.10;;;3.73;;
5279;SDS011;2663;53.588;10.010;2023-07-13T01:55:33;7.87;;;3.63;;
5279;SDS011;2663;53.588;10.010;2023-07-13T01:58:00;9.73;;;3.97;;
5279;SDS011;2663;53.588;10.010;2023-07-13T02:00:27;6.23;;;3.50;;
5279;SDS011;2663;53.588;10.010;2023-07-13T02:02:53;7.53;;;3.80;;
5279;SDS011;2663;53.588;10.010;2023-07-13T02:05:20;8.80;;;3.70;;
5279;SDS011;2663;53.588;10.010;2023-07-13T02:07:47;13.63;;;4.50;;
5279;SDS011;2663;53.588;10.010;2023-07-13T02:10:15;4.47;;;3.60;;
5279;SDS011;2663;53.588;10.010;2023-07-13T02:12:42;5.63;;;4.27;;
5279;SDS011;2663;53.588;10.010;2023-07-13T02:15:09;8.20;;;3.80;;
5279;SDS011;2663;53.588;10.010;2023-07-13T02:17:36;5.03;;;3.67;;
5279;SDS011;2663;53.588;10.010;2023-07-13T02:20:04;8.47;;;4.60;;
5279;SDS011;2663;53.588;10.010;2023-07-13T02:22:31;7.57;;;4.07;;
5279;SDS011;2663;53.588;10.010;2023-07-13T02:24:58;6.40;;;4.30;;
5279;SDS011;2663;53.588;10.010;2023-07-13T02:27:25;6.53;;;3.70;;
5279;SDS011;2663;53.588;10.010;2023-07-13T02:29:52;6.90;;;4.43;;
5279;SDS011;2663;53.588;10.010;2023-07-13T02:32:20;4.77;;;4.10;;
5279;SDS011;2663;53.588;10.010;2023-07-13T02:34:47;10.07;;;4.10;;
5279;SDS011;2663;53.588;10.010;2023-07-13T02:37:14;7.63;;;4.03;;
5279;SDS011;2663;53.588;10.010;2023-07-13T02:39:41;9.50;;;3.97;;
5279;SDS011;2663;53.588;10.010;2023-07-13T02:42:07;6.53;;;3.63;;
5279;SDS011;2663;53.588;10.010;2023-07-13T02:44:34;8.17;;;4.60;;
5279;SDS011;2663;53.588;10.010;2023-07-13T02:47:01;6.07;;;4.00;;
5279;SDS011;2663;53.588;10.010;2023-07-13T02:49:28;4.07;;;3.60;;
5279;SDS011;2663;53.588;10.010;2023-07-13T02:51:55;6.07;;;3.87;;
5279;SDS011;2663;53.588;10.010;2023-07-13T02:54:21;6.70;;;3.73;;
5279;SDS011;2663;53.588;10.010;2023-07-13T02:56:48;10.03;;;4.03;;
5279;SDS011;2663;53.588;10.010;2023-07-13T02:59:15;6.50;;;3.40;;
5279;SDS011;2663;53.588;10.010;2023-07-13T03:01:42;7.33;;;4.10;;
5279;SDS011;2663;53.588;10.010;2023-07-13T03:04:09;6.90;;;3.77;;
5279;SDS011;2663;53.588;10.010;2023-07-13T03:06:36;7.20;;;3.40;;
5279;SDS011;2663;53.588;10.010;2023-07-13T03:09:03;9.43;;;4.10;;
5279;SDS011;2663;53.588;10.010;2023-07-13T03:11:30;7.03;;;4.07;;
5279;SDS011;2663;53.588;10.010;2023-07-13T03:13:56;10.60;;;3.67;;
5279;SDS011;2663;53.588;10.010;2023-07-13T03:16:23;4.83;;;3.87;;
5279;SDS011;2663;53.588;10.010;2023-07-13T03:18:50;6.30;;;3.97;;
5279;SDS011;2663;53.588;10.010;2023-07-13T03:21:26;7.27;;;4.47;;
5279;SDS011;2663;53.588;10.010;2023-07-13T03:23:54;5.23;;;3.30;;
5279;SDS011;2663;53.588;10.010;2023-07-13T03:26:20;6.07;;;3.30;;
5279;SDS011;2663;53.588;10.010;2023-07-13T03:28:47;6.23;;;3.50;;
5279;SDS011;2663;53.588;10.010;2023-07-13T03:31:19;6.23;;;3.40;;
5279;SDS011;2663;53.588;10.010;2023-07-13T03:33:48;9.20;;;4.10;;
5279;SDS011;2663;53.588;10.010;2023-07-13T03:36:16;11.03;;;3.60;;
5279;SDS011;2663;53.588;10.010;2023-07-13T03:38:46;11.30;;;3.77;;
5279;SDS011;2663;53.588;10.010;2023-07-13T03:41:14;10.60;;;4.33;;
5279;SDS011;2663;53.588;10.010;2023-07-13T03:43:42;6.70;;;3.60;;
5279;SDS011;2663;53.588;10.010;2023-07-13T03:46:09;7.07;;;2.90;;
5279;SDS011;2663;53.588;10.010;2023-07-13T03:48:36;5.43;;;3.63;;
5279;SDS011;2663;53.588;10.010;2023-07-13T03:51:06;7.00;;;3.17;;
5279;SDS011;2663;53.588;10.010;2023-07-13T03:53:32;5.40;;;3.43;;
5279;SDS011;2663;53.588;10.010;2023-07-13T03:55:59;6.60;;;3.20;;
5279;SDS011;2663;53.588;10.010;2023-07-13T03:58:33;10.73;;;3.17;;
5279;SDS011;2663;53.588;10.010;2023-07-13T04:01:02;4.60;;;2.93;;
5279;SDS011;2663;53.588;10.010;2023-07-13T04:03:30;4.33;;;3.33;;
5279;SDS011;2663;53.588;10.010;2023-07-13T04:06:02;8.73;;;3.40;;
5279;SDS011;2663;53.588;10.010;2023-07-13T04:08:32;8.60;;;2.80;;
5279;SDS011;2663;53.588;10.010;2023-07-13T04:11:00;13.30;;;2.90;;
5279;SDS011;2663;53.588;10.010;2023-07-13T04:13:28;5.83;;;3.00;;
5279;SDS011;2663;53.588;10.010;2023-07-13T04:15:55;8.10;;;3.13;;
5279;SDS011;2663;53.588;10.010;2023-07-13T04:18:22;7.60;;;2.80;;
5279;SDS011;2663;53.588;10.010;2023-07-13T04:20:49;7.53;;;3.10;;
5279;SDS011;2663;53.588;10.010;2023-07-13T04:23:17;10.13;;;3.40;;
5279;SDS011;2663;53.588;10.010;2023-07-13T04:25:44;7.17;;;3.17;;
5279;SDS011;2663;53.588;10.010;2023-07-13T04:28:12;7.27;;;2.90;;
5279;SDS011;2663;53.588;10.010;2023-07-13T04:30:39;9.80;;;3.67;;
5279;SDS011;2663;53.588;10.010;2023-07-13T04:33:05;5.80;;;2.77;;
5279;SDS011;2663;53.588;10.010;2023-07-13T04:35:32;6.70;;;3.10;;
5279;SDS011;2663;53.588;10.010;2023-07-13T04:37:59;8.30;;;3.00;;
5279;SDS011;2663;53.588;10.010;2023-07-13T04:40:26;8.30;;;3.63;;
5279;SDS011;2663;53.588;10.010;2023-07-13T04:42:54;10.77;;;3.60;;
5279;SDS011;2663;53.588;10.010;2023-07-13T04:45:20;5.47;;;3.00;;
5279;SDS011;2663;53.588;10.010;2023-07-13T04:47:47;9.23;;;3.13;;
5279;SDS011;2663;53.588;10.010;2023-07-13T04:50:14;6.90;;;2.87;;
5279;SDS011;2663;53.588;10.010;2023-07-13T04:52:44;8.33;;;3.10;;
5279;SDS011;2663;53.588;10.010;2023-07-13T04:55:11;12.77;;;4.03;;
5279;SDS011;2663;53.588;10.010;2023-07-13T04:57:38;13.97;;;3.60;;
5279;SDS011;2663;53.588;10.010;2023-07-13T05:00:05;7.23;;;3.13;;
5279;SDS011;2663;53.588;10.010;2023-07-13T05:02:33;8.87;;;3.40;;
5279;SDS011;2663;53.588;10.010;2023-07-13T05:05:01;18.57;;;3.60;;
5279;SDS011;2663;53.588;10.010;2023-07-13T05:07:30;17.50;;;3.90;;
5279;SDS011;2663;53.588;10.010;2023-07-13T05:09:59;17.83;;;3.80;;
5279;SDS011;2663;53.588;10.010;2023-07-13T05:12:26;13.43;;;3.50;;
5279;SDS011;2663;53.588;10.010;2023-07-13T05:14:53;10.13;;;3.70;;
5279;SDS011;2663;53.588;10.010;2023-07-13T05:17:20;11.00;;;3.77;;
5279;SDS011;2663;53.588;10.010;2023-07-13T05:19:46;12.03;;;3.77;;
5279;SDS011;2663;53.588;10.010;2023-07-13T05:22:13;8.43;;;3.23;;
5279;SDS011;2663;53.588;10.010;2023-07-13T05:24:40;12.27;;;3.93;;
5279;SDS011;2663;53.588;10.010;2023-07-13T05:27:07;15.37;;;4.13;;
5279;SDS011;2663;53.588;10.010;2023-07-13T05:29:33;14.27;;;4.70;;
5279;SDS011;2663;53.588;10.010;2023-07-13T05:32:00;13.37;;;4.43;;
5279;SDS011;2663;53.588;10.010;2023-07-13T05:34:27;18.67;;;4.90;;
5279;SDS011;2663;53.588;10.010;2023-07-13T05:36:54;10.60;;;4.03;;
5279;SDS011;2663;53.588;10.010;2023-07-13T05:39:21;7.17;;;3.87;;
5279;SDS011;2663;53.588;10.010;2023-07-13T05:41:48;6.27;;;4.27;;
5279;SDS011;2663;53.588;10.010;2023-07-13T05:44:14;13.80;;;3.20;;
5279;SDS011;2663;53.588;10.010;2023-07-13T05:46:41;13.80;;;4.70;;
5279;SDS011;2663;53.588;10.010;2023-07-13T05:49:08;22.67;;;5.30;;
5279;SDS011;2663;53.588;10.010;2023-07-13T05:51:35;13.03;;;4.47;;
5279;SDS011;2663;53.588;10.010;2023-07-13T05:54:01;13.30;;;4.43;;
5279;SDS011;2663;53.588;10.010;2023-07-13T05:56:28;14.83;;;4.77;;
5279;SDS011;2663;53.588;10.010;2023-07-13T05:58:56;15.40;;;4.60;;
5279;SDS011;2663;53.588;10.010;2023-07-13T06:01:22;14.70;;;4.60;;
5279;SDS011;2663;53.588;10.010;2023-07-13T06:03:49;12.53;;;4.70;;
5279;SDS011;2663;53.588;10.010;2023-07-13T06:06:16;21.07;;;5.53;;
5279;SDS011;2663;53.588;10.010;2023-07-13T06:08:43;11.30;;;4.60;;
5279;SDS011;2663;53.588;10.010;2023-07-13T06:11:14;11.57;;;4.60;;
5279;SDS011;2663;53.588;10.010;2023-07-13T06:13:49;15.30;;;5.13;;
5279;SDS011;2663;53.588;10.010;2023-07-13T06:16:16;14.60;;;4.50;;
5279;SDS011;2663;53.588;10.010;2023-07-13T06:18:43;16.33;;;4.67;;
5279;SDS011;2663;53.588;10.010;2023-07-13T06:21:12;14.80;;;5.43;;
5279;SDS011;2663;53.588;10.010;2023-07-13T06:23:40;21.00;;;4.40;;
5279;SDS011;2663;53.588;10.010;2023-07-13T06:26:08;13.03;;;4.90;;
5279;SDS011;2663;53.588;10.010;2023-07-13T06:28:35;11.43;;;4.33;;
5279;SDS011;2663;53.588;10.010;2023-07-13T06:31:04;11.57;;;4.10;;
5279;SDS011;2663;53.588;10.010;2023-07-13T06:33:33;15.93;;;4.40;;
5279;SDS011;2663;53.588;10.010;2023-07-13T06:36:01;9.90;;;3.80;;
5279;SDS011;2663;53.588;10.010;2023-07-13T06:38:28;15.77;;;4.77;;
5279;SDS011;2663;53.588;10.010;2023-07-13T06:40:55;15.70;;;4.77;;
5279;SDS011;2663;53.588;10.010;2023-07-13T06:43:22;12.60;;;4.60;;
5279;SDS011;2663;53.588;10.010;2023-07-13T06:45:51;13.53;;;3.73;;
5279;SDS011;2663;53.588;10.010;2023-07-13T06:48:21;21.17;;;4.47;;
5279;SDS011;2663;53.588;10.010;2023-07-13T06:50:48;12.33;;;3.90;;
5279;SDS011;2663;53.588;10.010;2023-07-13T06:53:17;20.07;;;4.27;;
5279;SDS011;2663;53.588;10.010;2023-07-13T06:55:44;15.80;;;4.10;;
5279;SDS011;2663;53.588;10.010;2023-07-13T06:58:12;15.47;;;4.43;;
5279;SDS011;2663;53.588;10.010;2023-07-13T07:00:39;11.73;;;4.07;;
5279;SDS011;2663;53.588;10.010;2023-07-13T07:03:06;17.43;;;4.70;;
5279;SDS011;2663;53.588;10.010;2023-07-13T07:05:33;13.73;;;4.60;;
5279;SDS011;2663;53.588;10.010;2023-07-13T07:08:00;11.93;;;4.40;;
5279;SDS011;2663;53.588;10.010;2023-07-13T07:10:28;12.80;;;4.40;;
5279;SDS011;2663;53.588;10.010;2023-07-13T07:12:56;17.87;;;4.30;;
5279;SDS011;2663;53.588;10.010;2023-07-13T07:15:23;23.27;;;4.30;;
5279;SDS011;2663;53.588;10.010;2023-07-13T07:17:50;18.23;;;4.30;;
5279;SDS011;2663;53.588;10.010;2023-07-13T07:20:17;15.87;;;6.60;;
5279;SDS011;2663;53.588;10.010;2023-07-13T07:22:43;17.20;;;3.87;;
5279;SDS011;2663;53.588;10.010;2023-07-13T07:25:10;13.90;;;4.10;;
5279;SDS011;2663;53.588;10.010;2023-07-13T07:27:37;11.87;;;4.20;;
5279;SDS011;2663;53.588;10.010;2023-07-13T07:30:07;13.43;;;3.40;;
5279;SDS011;2663;53.588;10.010;2023-07-13T07:32:37;12.10;;;3.63;;
5279;SDS011;2663;53.588;10.010;2023-07-13T07:35:06;14.30;;;3.87;;
5279;SDS011;2663;53.588;10.010;2023-07-13T07:37:33;13.97;;;3.70;;
5279;SDS011;2663;53.588;10.010;2023-07-13T07:40:03;11.27;;;4.03;;
5279;SDS011;2663;53.588;10.010;2023-07-13T07:42:33;16.80;;;4.10;;
5279;SDS011;2663;53.588;10.010;2023-07-13T07:45:00;16.20;;;3.70;;
5279;SDS011;2663;53.588;10.010;2023-07-13T07:47:27;16.77;;;3.53;;
5279;SDS011;2663;53.588;10.010;2023-07-13T07:49:54;8.50;;;3.27;;
5279;SDS011;2663;53.588;10.010;2023-07-13T07:52:21;19.60;;;3.40;;
5279;SDS011;2663;53.588;10.010;2023-07-13T07:54:48;19.00;;;4.00;;
5279;SDS011;2663;53.588;10.010;2023-07-13T07:57:17;9.23;;;2.90;;
5279;SDS011;2663;53.588;10.010;2023-07-13T08:00:04;13.73;;;3.03;;
5279;SDS011;2663;53.588;10.010;2023-07-13T08:02:34;19.03;;;3.67;;
5279;SDS011;2663;53.588;10.010;2023-07-13T08:05:04;12.33;;;3.73;;
5279;SDS011;2663;53.588;10.010;2023-07-13T08:07:34;8.70;;;3.23;;
5279;SDS011;2663;53.588;10.010;2023-07-13T08:10:01;11.77;;;3.63;;
5279;SDS011;2663;53.588;10.010;2023-07-13T08:12:28;13.50;;;2.90;;
5279;SDS011;2663;53.588;10.010;2023-07-13T08:14:58;10.57;;;3.10;;
5279;SDS011;2663;53.588;10.010;2023-07-13T08:17:26;8.27;;;2.60;;
5279;SDS011;2663;53.588;10.010;2023-07-13T08:19:53;22.17;;;4.07;;
5279;SDS011;2663;53.588;10.010;2023-07-13T08:22:20;12.90;;;2.97;;
5279;SDS011;2663;53.588;10.010;2023-07-13T08:24:48;11.40;;;2.70;;
5279;SDS011;2663;53.588;10.010;2023-07-13T08:27:22;15.63;;;2.90;;
5279;SDS011;2663;53.588;10.010;2023-07-13T08:29:49;7.50;;;2.60;;
5279;SDS011;2663;53.588;10.010;2023-07-13T08:32:17;15.90;;;2.80;;
5279;SDS011;2663;53.588;10.010;2023-07-13T08:34:46;15.50;;;3.60;;
5279;SDS011;2663;53.588;10.010;2023-07-13T08:37:13;20.03;;;3.87;;
5279;SDS011;2663;53.588;10.010;2023-07-13T08:39:40;14.40;;;3.87;;
5279;SDS011;2663;53.588;10.010;2023-07-13T08:42:12;18.67;;;4.10;;
5279;SDS011;2663;53.588;10.010;2023-07-13T08:47:51;10.53;;;3.50;;
5279;SDS011;2663;53.588;10.010;2023-07-13T08:50:22;27.10;;;3.93;;
5279;SDS011;2663;53.588;10.010;2023-07-13T08:52:53;12.37;;;3.43;;
5279;SDS011;2663;53.588;10.010;2023-07-13T08:55:27;14.20;;;2.87;;
5279;SDS011;2663;53.588;10.010;2023-07-13T08:58:01;11.57;;;3.80;;
5279;SDS011;2663;53.588;10.010;2023-07-13T09:00:46;9.70;;;2.97;;
5279;SDS011;2663;53.588;10.010;2023-07-13T09:03:20;8.20;;;2.47;;
5279;SDS011;2663;53.588;10.010;2023-07-13T09:05:51;18.47;;;2.70;;
5279;SDS011;2663;53.588;10.010;2023-07-13T09:08:32;12.43;;;2.80;;
5279;SDS011;2663;53.588;10.010;2023-07-13T09:14:06;8.93;;;3.13;;
5279;SDS011;2663;53.588;10.010;2023-07-13T09:16:53;10.77;;;2.70;;
5279;SDS011;2663;53.588;10.010;2023-07-13T09:19:30;8.33;;;2.70;;
5279;SDS011;2663;53.588;10.010;2023-07-13T09:21:59;18.07;;;2.87;;
5279;SDS011;2663;53.588;10.010;2023-07-13T09:27:03;9.30;;;2.80;;
5279;SDS011;2663;53.588;10.010;2023-07-13T09:29:48;9.70;;;3.17;;
5279;SDS011;2663;53.588;10.010;2023-07-13T09:32:18;10.33;;;2.57;;
5279;SDS011;2663;53.588;10.010;2023-07-13T09:34:55;6.90;;;2.90;;
5279;SDS011;2663;53.588;10.010;2023-07-13T09:37:24;7.60;;;3.33;;
5279;SDS011;2663;53.588;10.010;2023-07-13T09:39:56;9.13;;;3.13;;
5279;SDS011;2663;53.588;10.010;2023-07-13T09:42:25;12.57;;;2.80;;
5279;SDS011;2663;53.588;10.010;2023-07-13T09:44:56;8.70;;;2.83;;
5279;SDS011;2663;53.588;10.010;2023-07-13T09:47:29;6.80;;;2.70;;
5279;SDS011;2663;53.588;10.010;2023-07-13T09:50:01;12.93;;;3.40;;
5279;SDS011;2663;53.588;10.010;2023-07-13T09:52:39;7.13;;;2.90;;
5279;SDS011;2663;53.588;10.010;2023-07-13T09:55:27;15.70;;;2.87;;
5279;SDS011;2663;53.588;10.010;2023-07-13T09:57:57;9.97;;;2.67;;
5279;SDS011;2663;53.588;10.010;2023-07-13T10:00:29;13.93;;;3.20;;
5279;SDS011;2663;53.588;10.010;2023-07-13T10:03:00;9.70;;;3.00;;
5279;SDS011;2663;53.588;10.010;2023-07-13T10:05:40;19.00;;;2.90;;
5279;SDS011;2663;53.588;10.010;2023-07-13T10:10:52;10.70;;;3.00;;
5279;SDS011;2663;53.588;10.010;2023-07-13T10:13:32;15.53;;;3.27;;
5279;SDS011;2663;53.588;10.010;2023-07-13T10:16:06;8.90;;;2.83;;
5279;SDS011;2663;53.588;10.010;2023-07-13T10:18:53;9.73;;;2.67;;
5279;SDS011;2663;53.588;10.010;2023-07-13T10:21:26;8.60;;;2.30;;
5279;SDS011;2663;53.588;10.010;2023-07-13T10:24:19;6.07;;;2.77;;
5279;SDS011;2663;53.588;10.010;2023-07-13T10:27:00;11.70;;;2.50;;
5279;SDS011;2663;53.588;10.010;2023-07-13T10:29:34;4.70;;;2.33;;
5279;SDS011;2663;53.588;10.010;2023-07-13T10:32:35;6.50;;;2.70;;
5279;SDS011;2663;53.588;10.010;2023-07-13T10:35:02;9.43;;;2.40;;
5279;SDS011;2663;53.588;10.010;2023-07-13T10:37:31;6.80;;;2.20;;
5279;SDS011;2663;53.588;10.010;2023-07-13T10:40:05;11.10;;;2.33;;
5279;SDS011;2663;53.588;10.010;2023-07-13T10:42:40;6.60;;;2.00;;
5279;SDS011;2663;53.588;10.010;2023-07-13T10:45:12;3.80;;;2.13;;
5279;SDS011;2663;53.588;10.010;2023-07-13T10:47:41;7.57;;;2.73;;
5279;SDS011;2663;53.588;10.010;2023-07-13T10:50:13;2.63;;;2.20;;
5279;SDS011;2663;53.588;10.010;2023-07-13T10:52:47;8.80;;;2.80;;
5279;SDS011;2663;53.588;10.010;2023-07-13T10:58:24;7.40;;;2.70;;
5279;SDS011;2663;53.588;10.010;2023-07-13T11:01:39;6.40;;;2.10;;
5279;SDS011;2663;53.588;10.010;2023-07-13T11:04:08;5.30;;;2.37;;
5279;SDS011;2663;53.588;10.010;2023-07-13T11:06:47;7.27;;;2.23;;
5279;SDS011;2663;53.588;10.010;2023-07-13T11:09:35;8.13;;;2.77;;
5279;SDS011;2663;53.588;10.010;2023-07-13T11:12:08;3.77;;;1.80;;
5279;SDS011;2663;53.588;10.010;2023-07-13T11:15:00;13.90;;;2.40;;
5279;SDS011;2663;53.588;10.010;2023-07-13T11:17:34;8.70;;;3.07;;
5279;SDS011;2663;53.588;10.010;2023-07-13T11:22:42;5.43;;;2.40;;
5279;SDS011;2663;53.588;10.010;2023-07-13T11:25:24;6.10;;;2.07;;
5279;SDS011;2663;53.588;10.010;2023-07-13T11:30:34;7.50;;;1.90;;
5279;SDS011;2663;53.588;10.010;2023-07-13T11:36:23;7.43;;;2.17;;
5279;SDS011;2663;53.588;10.010;2023-07-13T11:38:41;3.87;;;2.00;;
5279;SDS011;2663;53.588;10.010;2023-07-13T11:41:22;3.40;;;1.90;;
5279;SDS011;2663;53.588;10.010;2023-07-13T11:44:11;7.10;;;2.60;;
5279;SDS011;2663;53.588;10.010;2023-07-13T11:46:53;1.90;;;1.80;;
5279;SDS011;2663;53.588;10.010;2023-07-13T11:49:29;9.33;;;2.00;;
5279;SDS011;2663;53.588;10.010;2023-07-13T11:51:58;10.17;;;3.83;;
5279;SDS011;2663;53.588;10.010;2023-07-13T11:54:28;8.53;;;3.10;;
5279;SDS011;2663;53.588;10.010;2023-07-13T11:59:55;7.57;;;2.77;;
5279;SDS011;2663;53.588;10.010;2023-07-13T12:02:29;4.17;;;2.10;;
5279;SDS011;2663;53.588;10.010;2023-07-13T12:05:02;9.10;;;2.90;;
5279;SDS011;2663;53.588;10.010;2023-07-13T12:07:31;3.97;;;1.93;;
5279;SDS011;2663;53.588;10.010;2023-07-13T12:10:19;11.87;;;2.67;;
5279;SDS011;2663;53.588;10.010;2023-07-13T12:12:52;4.90;;;2.07;;
5279;SDS011;2663;53.588;10.010;2023-07-13T12:15:21;5.90;;;2.00;;
5279;SDS011;2663;53.588;10.010;2023-07-13T12:17:50;8.40;;;2.67;;
5279;SDS011;2663;53.588;10.010;2023-07-13T12:20:26;20.43;;;3.20;;
5279;SDS011;2663;53.588;10.010;2023-07-13T12:22:54;6.23;;;2.07;;
5279;SDS011;2663;53.588;10.010;2023-07-13T12:25:21;15.10;;;3.50;;
5279;SDS011;2663;53.588;10.010;2023-07-13T12:35:24;8.97;;;2.30;;
5279;SDS011;2663;53.588;10.010;2023-07-13T12:37:52;7.27;;;2.50;;
5279;SDS011;2663;53.588;10.010;2023-07-13T12:40:20;16.37;;;3.57;;
5279;SDS011;2663;53.588;10.010;2023-07-13T12:42:52;5.43;;;2.70;;
5279;SDS011;2663;53.588;10.010;2023-07-13T12:45:23;15.27;;;3.70;;
5279;SDS011;2663;53.588;10.010;2023-07-13T12:47:55;8.23;;;3.40;;
5279;SDS011;2663;53.588;10.010;2023-07-13T12:50:42;6.30;;;2.70;;
5279;SDS011;2663;53.588;10.010;2023-07-13T12:53:16;11.50;;;3.40;;
5279;SDS011;2663;53.588;10.010;2023-07-13T12:55:47;8.20;;;3.40;;
5279;SDS011;2663;53.588;10.010;2023-07-13T12:58:25;8.97;;;3.57;;
5279;SDS011;2663;53.588;10.010;2023-07-13T13:00:55;6.57;;;3.30;;
5279;SDS011;2663;53.588;10.010;2023-07-13T13:03:31;8.03;;;2.90;;
5279;SDS011;2663;53.588;10.010;2023-07-13T13:06:01;7.70;;;2.90;;
5279;SDS011;2663;53.588;10.010;2023-07-13T13:08:32;11.63;;;2.60;;
5279;SDS011;2663;53.588;10.010;2023-07-13T13:11:01;9.80;;;2.63;;
5279;SDS011;2663;53.588;10.010;2023-07-13T13:13:28;8.03;;;2.60;;
5279;SDS011;2663;53.588;10.010;2023-07-13T13:15:55;5.63;;;2.47;;
5279;SDS011;2663;53.588;10.010;2023-07-13T13:18:23;7.17;;;2.43;;
5279;SDS011;2663;53.588;10.010;2023-07-13T13:20:51;2.17;;;1.87;;
5279;SDS011;2663;53.588;10.010;2023-07-13T13:23:18;3.40;;;2.40;;
5279;SDS011;2663;53.588;10.010;2023-07-13T13:25:46;3.87;;;1.73;;
5279;SDS011;2663;53.588;10.010;2023-07-13T13:28:16;3.37;;;1.97;;
5279;SDS011;2663;53.588;10.010;2023-07-13T13:30:45;4.43;;;2.60;;
5279;SDS011;2663;53.588;10.010;2023-07-13T13:33:17;2.27;;;2.00;;
5279;SDS011;2663;53.588;10.010;2023-07-13T13:35:45;6.97;;;3.83;;
5279;SDS011;2663;53.588;10.010;2023-07-13T13:38:16;6.20;;;2.10;;
5279;SDS011;2663;53.588;10.010;2023-07-13T13:40:46;6.13;;;2.37;;
5279;SDS011;2663;53.588;10.010;2023-07-13T13:43:16;10.37;;;2.63;;
5279;SDS011;2663;53.588;10.010;2023-07-13T13:45:44;3.87;;;1.90;;
5279;SDS011;2663;53.588;10.010;2023-07-13T13:48:19;4.30;;;2.20;;
5279;SDS011;2663;53.588;10.010;2023-07-13T13:50:57;4.73;;;2.53;;
5279;SDS011;2663;53.588;10.010;2023-07-13T13:53:25;4.30;;;2.20;;
5279;SDS011;2663;53.588;10.010;2023-07-13T13:55:52;5.63;;;2.50;;
5279;SDS011;2663;53.588;10.010;2023-07-13T13:58:19;3.03;;;2.10;;
5279;SDS011;2663;53.588;10.010;2023-07-13T14:00:47;8.10;;;2.33;;
5279;SDS011;2663;53.588;10.010;2023-07-13T14:03:18;4.77;;;2.23;;
5279;SDS011;2663;53.588;10.010;2023-07-13T14:05:48;6.17;;;2.60;;
5279;SDS011;2663;53.588;10.010;2023-07-13T14:08:16;7.90;;;2.60;;
5279;SDS011;2663;53.588;10.010;2023-07-13T14:10:45;4.70;;;2.30;;
5279;SDS011;2663;53.588;10.010;2023-07-13T14:13:17;2.40;;;1.77;;
5279;SDS011;2663;53.588;10.010;2023-07-13T14:15:47;5.60;;;1.80;;
5279;SDS011;2663;53.588;10.010;2023-07-13T14:18:14;4.53;;;2.10;;
5279;SDS011;2663;53.588;10.010;2023-07-13T14:20:45;3.03;;;1.80;;
5279;SDS011;2663;53.588;10.010;2023-07-13T14:23:14;13.40;;;2.30;;
5279;SDS011;2663;53.588;10.010;2023-07-13T14:25:42;4.90;;;2.10;;
5279;SDS011;2663;53.588;10.010;2023-07-13T14:30:51;7.30;;;2.70;;
5279;SDS011;2663;53.588;10.010;2023-07-13T14:33:20;4.93;;;2.50;;
5279;SDS011;2663;53.588;10.010;2023-07-13T14:35:48;4.80;;;2.90;;
5279;SDS011;2663;53.588;10.010;2023-07-13T14:38:18;4.50;;;2.13;;
5279;SDS011;2663;53.588;10.010;2023-07-13T14:40:46;7.53;;;2.60;;
5279;SDS011;2663;53.588;10.010;2023-07-13T14:43:14;8.03;;;2.30;;
5279;SDS011;2663;53.588;10.010;2023-07-13T14:45:43;6.37;;;2.80;;
5279;SDS011;2663;53.588;10.010;2023-07-13T14:48:21;9.27;;;3.10;;
5279;SDS011;2663;53.588;10.010;2023-07-13T14:50:53;9.10;;;2.97;;
5279;SDS011;2663;53.588;10.010;2023-07-13T14:53:22;7.93;;;2.37;;
5279;SDS011;2663;53.588;10.010;2023-07-13T14:55:51;19.63;;;5.63;;
5279;SDS011;2663;53.588;10.010;2023-07-13T14:58:18;4.13;;;2.57;;
5279;SDS011;2663;53.588;10.010;2023-07-13T15:00:45;3.83;;;2.57;;
5279;SDS011;2663;53.588;10.010;2023-07-13T15:03:17;5.63;;;2.73;;
5279;SDS011;2663;53.588;10.010;2023-07-13T15:05:49;10.90;;;2.90;;
5279;SDS011;2663;53.588;10.010;2023-07-13T15:08:19;5.70;;;3.03;;
5279;SDS011;2663;53.588;10.010;2023-07-13T15:10:46;3.33;;;2.93;;
5279;SDS011;2663;53.588;10.010;2023-07-13T15:13:14;10.70;;;3.20;;
5279;SDS011;2663;53.588;10.010;2023-07-13T15:15:49;3.20;;;2.30;;
5279;SDS011;2663;53.588;10.010;2023-07-13T15:18:18;6.13;;;2.30;;
5279;SDS011;2663;53.588;10.010;2023-07-13T15:20:47;9.60;;;2.60;;
5279;SDS011;2663;53.588;10.010;2023-07-13T15:23:16;3.30;;;2.90;;
5279;SDS011;2663;53.588;10.010;2023-07-13T15:25:44;4.73;;;2.70;;
5279;SDS011;2663;53.588;10.010;2023-07-13T15:28:12;10.40;;;2.40;;
5279;SDS011;2663;53.588;10.010;2023-07-13T15:30:40;5.23;;;2.30;;
5279;SDS011;2663;53.588;10.010;2023-07-13T15:33:13;7.87;;;3.70;;
5279;SDS011;2663;53.588;10.010;2023-07-13T15:35:54;5.00;;;2.70;;
5279;SDS011;2663;53.588;10.010;2023-07-13T15:38:22;5.67;;;2.67;;
5279;SDS011;2663;53.588;10.010;2023-07-13T15:40:59;7.60;;;3.57;;
5279;SDS011;2663;53.588;10.010;2023-07-13T15:43:25;6.40;;;3.17;;
5279;SDS011;2663;53.588;10.010;2023-07-13T15:45:52;8.80;;;2.80;;
5279;SDS011;2663;53.588;10.010;2023-07-13T15:48:20;5.30;;;3.00;;
5279;SDS011;2663;53.588;10.010;2023-07-13T15:50:53;5.47;;;2.40;;